Time;durP1;ratioP1;P1;durP2;ratioP2;P2;SDS_P1;SDS_P2;PMS_P1;PMS_P2;Temp;Humidity;BMP_temperature;BMP_pressure;BME280_temperature;BME280_humidity;BME280_pressure;Samples;Min_cycle;Max_cycle;Signal;HPM_P1;HPM_P2
2020/12/01 00:00:04;;;;;;;22.83;12.47;;;;;;;;;;5089247;28;20205;-76
2020/12/01 00:02:32;;;;;;;27.57;12.43;;;;;;;;;;5068470;28;20588;-76
2020/12/01 00:05:01;;;;;;;23.03;11.93;;;;;;;;;;5062305;28;20229;-76
2020/12/01 00:07:28;;;;;;;20.37;11.17;;;;;;;;;;5083037;28;20209;-76
2020/12/01 00:09:56;;;;;;;22.47;12.33;;;;;;;;;;5078228;28;20782;-76
2020/12/01 00:12:23;;;;;;;22.63;12.07;;;;;;;;;;5080117;28;20209;-76
2020/12/01 00:14:51;;;;;;;18.40;11.30;;;;;;;;;;5077726;28;20237;-77
2020/12/01 00:17:18;;;;;;;23.97;12.23;;;;;;;;;;5058773;28;20211;-76
2020/12/01 00:19:46;;;;;;;21.93;10.87;;;;;;;;;;5067833;28;20215;-75
2020/12/01 00:22:14;;;;;;;19.30;10.40;;;;;;;;;;5063171;28;20233;-77
2020/12/01 00:24:42;;;;;;;23.47;11.57;;;;;;;;;;5064139;28;20230;-76
2020/12/01 00:27:10;;;;;;;19.30;10.70;;;;;;;;;;5082834;28;20221;-77
2020/12/01 00:29:37;;;;;;;19.97;10.57;;;;;;;;;;5085253;28;20202;-77
2020/12/01 00:32:05;;;;;;;20.43;10.80;;;;;;;;;;5065965;28;20209;-77
2020/12/01 00:34:33;;;;;;;22.10;11.53;;;;;;;;;;5081146;28;20229;-77
2020/12/01 00:37:02;;;;;;;21.63;11.00;;;;;;;;;;5077897;28;20229;-76
2020/12/01 00:39:31;;;;;;;22.73;11.43;;;;;;;;;;5079883;28;20573;-77
2020/12/01 00:41:59;;;;;;;18.47;10.53;;;;;;;;;;5086770;28;20599;-78
2020/12/01 00:44:26;;;;;;;21.33;11.43;;;;;;;;;;5085947;28;20606;-76
2020/12/01 00:46:54;;;;;;;19.67;10.20;;;;;;;;;;5074634;28;20225;-76
2020/12/01 00:49:22;;;;;;;20.70;11.63;;;;;;;;;;5083052;28;20206;-77
2020/12/01 00:51:55;;;;;;;22.10;10.67;;;;;;;;;;5078748;28;20206;-76
2020/12/01 00:54:23;;;;;;;21.63;11.57;;;;;;;;;;5064816;28;20234;-76
2020/12/01 00:56:51;;;;;;;19.37;10.27;;;;;;;;;;5075429;28;20203;-76
2020/12/01 00:59:19;;;;;;;18.97;10.23;;;;;;;;;;5064427;28;20207;-76
2020/12/01 01:01:52;;;;;;;20.53;11.30;;;;;;;;;;5078606;28;20237;-76
2020/12/01 01:04:20;;;;;;;21.17;11.23;;;;;;;;;;5081391;28;20619;-76
2020/12/01 01:06:48;;;;;;;17.73;9.90;;;;;;;;;;5063243;28;20552;-76
2020/12/01 01:09:16;;;;;;;23.27;11.90;;;;;;;;;;5061259;28;20661;-76
2020/12/01 01:11:44;;;;;;;20.73;11.57;;;;;;;;;;5064412;28;20214;-76
2020/12/01 01:14:13;;;;;;;18.77;10.87;;;;;;;;;;5067860;28;20312;-76
2020/12/01 01:16:41;;;;;;;21.23;10.83;;;;;;;;;;5091443;28;20214;-76
2020/12/01 01:19:10;;;;;;;18.97;10.57;;;;;;;;;;5074413;28;20210;-77
2020/12/01 01:21:42;;;;;;;21.50;11.30;;;;;;;;;;5080953;28;20221;-77
2020/12/01 01:24:11;;;;;;;19.53;10.90;;;;;;;;;;5078136;28;20232;-77
2020/12/01 01:26:39;;;;;;;19.87;11.33;;;;;;;;;;5080975;28;20225;-76
2020/12/01 01:29:07;;;;;;;22.37;11.40;;;;;;;;;;5077314;28;20202;-76
2020/12/01 01:31:35;;;;;;;18.60;10.60;;;;;;;;;;5083671;28;20213;-75
2020/12/01 01:34:03;;;;;;;21.30;11.83;;;;;;;;;;5082521;28;20230;-77
2020/12/01 01:36:32;;;;;;;20.53;10.47;;;;;;;;;;5086046;28;20218;-76
2020/12/01 01:39:00;;;;;;;20.60;11.70;;;;;;;;;;5070428;28;20691;-76
2020/12/01 01:41:30;;;;;;;19.43;10.63;;;;;;;;;;5084405;28;20233;-77
2020/12/01 01:43:58;;;;;;;18.13;10.03;;;;;;;;;;5084424;28;22596;-76
2020/12/01 01:46:39;;;;;;;18.20;11.30;;;;;;;;;;5063059;28;20205;-76
2020/12/01 01:49:14;;;;;;;19.40;10.60;;;;;;;;;;5086711;28;20202;-76
2020/12/01 01:51:43;;;;;;;17.57;10.10;;;;;;;;;;5086484;28;20210;-75
2020/12/01 01:54:11;;;;;;;22.23;10.93;;;;;;;;;;5069748;28;20596;-76
2020/12/01 01:56:40;;;;;;;18.60;10.47;;;;;;;;;;5084253;28;20199;-76
2020/12/01 01:59:09;;;;;;;20.93;10.80;;;;;;;;;;5098013;28;20564;-76
2020/12/01 02:01:37;;;;;;;19.47;11.20;;;;;;;;;;5069064;28;20562;-76
2020/12/01 02:04:08;;;;;;;22.27;11.67;;;;;;;;;;5084284;28;20241;-77
2020/12/01 02:06:39;;;;;;;17.37;10.83;;;;;;;;;;5082652;28;20678;-76
2020/12/01 02:09:09;;;;;;;21.03;11.43;;;;;;;;;;5089508;28;20214;-76
2020/12/01 02:11:39;;;;;;;17.70;10.07;;;;;;;;;;5086304;28;20190;-76
2020/12/01 02:14:10;;;;;;;19.37;11.00;;;;;;;;;;5084419;28;20230;-76
2020/12/01 02:16:41;;;;;;;19.53;10.57;;;;;;;;;;5071568;28;20202;-76
2020/12/01 02:19:12;;;;;;;20.20;10.63;;;;;;;;;;5084595;28;20225;-76
2020/12/01 02:21:41;;;;;;;23.87;11.93;;;;;;;;;;5082963;28;22850;-76
2020/12/01 02:24:11;;;;;;;23.00;12.00;;;;;;;;;;5088099;28;20241;-77
2020/12/01 02:26:40;;;;;;;19.43;11.20;;;;;;;;;;5081212;28;20214;-76
2020/12/01 02:29:11;;;;;;;17.03;10.47;;;;;;;;;;5083098;28;20770;-76
2020/12/01 02:31:39;;;;;;;20.23;11.63;;;;;;;;;;5088322;28;20206;-76
2020/12/01 02:34:08;;;;;;;18.60;10.10;;;;;;;;;;5085927;28;20230;-76
2020/12/01 02:36:36;;;;;;;19.47;11.27;;;;;;;;;;5069745;28;20210;-76
2020/12/01 02:39:04;;;;;;;20.83;11.93;;;;;;;;;;5081825;28;20220;-76
2020/12/01 02:41:32;;;;;;;17.13;10.20;;;;;;;;;;5064149;28;20596;-76
2020/12/01 02:44:02;;;;;;;19.67;10.23;;;;;;;;;;5064634;28;20227;-76
2020/12/01 02:46:35;;;;;;;16.70;9.23;;;;;;;;;;5083117;28;20573;-76
2020/12/01 02:49:04;;;;;;;20.47;10.47;;;;;;;;;;5072199;28;20591;-76
2020/12/01 02:51:31;;;;;;;22.03;11.83;;;;;;;;;;5086864;28;20687;-76
2020/12/01 02:54:00;;;;;;;20.20;10.87;;;;;;;;;;5067170;28;20718;-76
2020/12/01 02:56:27;;;;;;;18.00;9.83;;;;;;;;;;5058552;28;20218;-76
2020/12/01 02:58:55;;;;;;;22.17;11.20;;;;;;;;;;5086908;28;20209;-76
2020/12/01 03:01:24;;;;;;;18.60;10.63;;;;;;;;;;5076095;28;20224;-75
2020/12/01 03:03:51;;;;;;;22.90;11.27;;;;;;;;;;5094963;28;20236;-76
2020/12/01 03:06:20;;;;;;;19.57;11.50;;;;;;;;;;5089431;28;20201;-76
2020/12/01 03:08:49;;;;;;;22.87;11.07;;;;;;;;;;5093994;28;20205;-77
2020/12/01 03:11:17;;;;;;;21.20;11.20;;;;;;;;;;5079181;28;20190;-76
2020/12/01 03:13:45;;;;;;;25.40;11.93;;;;;;;;;;5092030;28;20226;-76
2020/12/01 03:16:13;;;;;;;24.03;11.97;;;;;;;;;;5084357;28;20214;-76
2020/12/01 03:18:43;;;;;;;22.53;12.50;;;;;;;;;;5089991;28;20218;-76
2020/12/01 03:21:13;;;;;;;22.50;11.83;;;;;;;;;;5081213;28;20214;-76
2020/12/01 03:23:41;;;;;;;24.53;12.43;;;;;;;;;;5086990;28;20214;-76
2020/12/01 03:26:10;;;;;;;24.73;12.60;;;;;;;;;;5084390;28;20216;-76
2020/12/01 03:28:38;;;;;;;19.03;11.17;;;;;;;;;;5083994;28;20585;-76
2020/12/01 03:31:06;;;;;;;22.30;11.57;;;;;;;;;;5091392;28;20202;-76
2020/12/01 03:33:34;;;;;;;24.73;13.20;;;;;;;;;;5087121;28;20202;-76
2020/12/01 03:36:02;;;;;;;23.53;13.47;;;;;;;;;;5084847;28;20232;-76
2020/12/01 03:38:30;;;;;;;22.57;12.50;;;;;;;;;;5096267;28;20217;-76
2020/12/01 03:40:57;;;;;;;20.33;11.67;;;;;;;;;;5084884;28;20206;-76
2020/12/01 03:43:25;;;;;;;25.47;12.53;;;;;;;;;;5101224;28;20531;-77
2020/12/01 03:45:52;;;;;;;21.47;11.80;;;;;;;;;;5086751;28;20213;-75
2020/12/01 03:48:20;;;;;;;23.90;12.77;;;;;;;;;;5091847;28;20210;-76
2020/12/01 03:50:48;;;;;;;25.27;13.33;;;;;;;;;;5091094;28;20198;-76
2020/12/01 03:53:16;;;;;;;25.97;13.20;;;;;;;;;;5062938;28;20198;-76
2020/12/01 03:55:44;;;;;;;25.27;12.40;;;;;;;;;;5082791;28;20242;-76
2020/12/01 03:58:11;;;;;;;27.13;13.37;;;;;;;;;;5089860;28;20195;-77
2020/12/01 04:00:39;;;;;;;23.77;12.23;;;;;;;;;;5067960;28;20284;-76
2020/12/01 04:03:07;;;;;;;23.97;12.23;;;;;;;;;;5090368;28;20218;-77
2020/12/01 04:05:35;;;;;;;23.40;11.70;;;;;;;;;;5089029;28;20761;-77
2020/12/01 04:08:02;;;;;;;25.40;12.43;;;;;;;;;;5093300;28;20221;-75
2020/12/01 04:10:30;;;;;;;18.70;10.93;;;;;;;;;;5083916;28;20190;-76
2020/12/01 04:12:58;;;;;;;21.53;11.03;;;;;;;;;;5107697;28;20386;-76
2020/12/01 04:15:25;;;;;;;19.67;11.57;;;;;;;;;;5083772;28;20209;-75
2020/12/01 04:17:53;;;;;;;19.87;11.67;;;;;;;;;;5085803;28;20198;-76
2020/12/01 04:20:22;;;;;;;18.37;10.83;;;;;;;;;;5082214;28;20202;-76
2020/12/01 04:22:50;;;;;;;20.03;11.40;;;;;;;;;;5067677;28;20230;-76
2020/12/01 04:25:20;;;;;;;16.03;9.07;;;;;;;;;;5082872;28;20241;-76
2020/12/01 04:27:50;;;;;;;16.43;9.60;;;;;;;;;;5058829;28;20572;-75
2020/12/01 04:30:18;;;;;;;16.87;9.40;;;;;;;;;;5085827;28;20674;-77
2020/12/01 04:32:46;;;;;;;15.33;8.70;;;;;;;;;;5083280;28;20687;-76
2020/12/01 04:35:14;;;;;;;14.43;7.97;;;;;;;;;;5057304;28;20225;-76
2020/12/01 04:37:42;;;;;;;14.90;8.90;;;;;;;;;;5069866;28;20558;-76
2020/12/01 04:40:10;;;;;;;13.83;8.43;;;;;;;;;;5085770;28;20213;-76
2020/12/01 04:42:46;;;;;;;12.80;7.60;;;;;;;;;;5063317;28;20222;-76
2020/12/01 04:45:14;;;;;;;12.50;7.67;;;;;;;;;;5081076;28;20225;-75
2020/12/01 04:47:52;;;;;;;11.47;7.13;;;;;;;;;;5096610;28;20198;-76
2020/12/01 04:50:26;;;;;;;13.60;7.77;;;;;;;;;;5085070;28;20206;-76
2020/12/01 04:53:05;;;;;;;12.43;7.00;;;;;;;;;;5085204;28;20382;-76
2020/12/01 04:55:51;;;;;;;13.33;7.87;;;;;;;;;;5058083;28;20229;-77
2020/12/01 04:58:40;;;;;;;12.07;7.40;;;;;;;;;;5058588;28;20202;-76
2020/12/01 05:01:13;;;;;;;14.47;7.50;;;;;;;;;;5085271;28;20193;-76
2020/12/01 05:03:53;;;;;;;15.03;8.90;;;;;;;;;;5083904;28;20227;-75
2020/12/01 05:06:45;;;;;;;14.90;7.77;;;;;;;;;;5078555;28;20257;-75
2020/12/01 05:09:15;;;;;;;11.63;7.07;;;;;;;;;;5098784;28;20652;-75
2020/12/01 05:11:49;;;;;;;13.20;6.53;;;;;;;;;;5083999;28;20217;-76
2020/12/01 05:14:24;;;;;;;12.30;6.80;;;;;;;;;;5078980;28;20226;-76
2020/12/01 05:17:08;;;;;;;11.90;7.37;;;;;;;;;;5079518;28;20202;-75
2020/12/01 05:19:42;;;;;;;15.43;7.90;;;;;;;;;;5077468;28;20214;-76
2020/12/01 05:22:12;;;;;;;12.37;7.03;;;;;;;;;;5065364;28;20205;-77
2020/12/01 05:24:42;;;;;;;10.90;6.63;;;;;;;;;;5087852;28;20695;-76
2020/12/01 05:27:21;;;;;;;14.90;6.73;;;;;;;;;;5076826;28;20202;-76
2020/12/01 05:29:53;;;;;;;12.37;6.57;;;;;;;;;;5086066;28;20659;-76
2020/12/01 05:32:28;;;;;;;12.57;6.83;;;;;;;;;;5083027;28;20699;-77
2020/12/01 05:35:06;;;;;;;11.17;6.43;;;;;;;;;;5063375;28;20228;-77
2020/12/01 05:37:34;;;;;;;9.20;6.00;;;;;;;;;;5082742;28;20217;-76
2020/12/01 05:40:07;;;;;;;9.43;5.77;;;;;;;;;;5066494;28;20206;-76
2020/12/01 05:42:37;;;;;;;11.00;6.23;;;;;;;;;;5062791;28;20226;-77
2020/12/01 05:45:04;;;;;;;11.03;6.73;;;;;;;;;;5083721;28;20245;-75
2020/12/01 05:47:40;;;;;;;11.60;6.70;;;;;;;;;;5087820;28;20222;-78
2020/12/01 05:50:11;;;;;;;10.43;6.63;;;;;;;;;;5087763;28;20205;-78
2020/12/01 05:52:45;;;;;;;10.70;6.60;;;;;;;;;;5072369;28;20652;-76
2020/12/01 05:55:17;;;;;;;12.43;7.23;;;;;;;;;;5087237;28;20232;-76
2020/12/01 05:57:56;;;;;;;11.73;6.90;;;;;;;;;;5085463;28;20213;-76
2020/12/01 06:00:29;;;;;;;11.17;6.47;;;;;;;;;;5082260;28;20210;-77
2020/12/01 06:03:08;;;;;;;11.07;7.47;;;;;;;;;;5087525;28;20618;-76
2020/12/01 06:05:38;;;;;;;8.80;5.60;;;;;;;;;;5093415;28;20222;-76
2020/12/01 06:08:14;;;;;;;10.20;6.40;;;;;;;;;;5094098;28;20201;-76
2020/12/01 06:10:43;;;;;;;10.07;6.37;;;;;;;;;;5078537;28;20217;-77
2020/12/01 06:13:19;;;;;;;12.20;7.03;;;;;;;;;;5087682;28;20229;-77
2020/12/01 06:16:02;;;;;;;10.03;6.33;;;;;;;;;;5067366;28;20241;-76
2020/12/01 06:18:42;;;;;;;11.17;6.87;;;;;;;;;;5075406;28;20205;-77
2020/12/01 06:21:10;;;;;;;9.33;5.87;;;;;;;;;;5074066;28;20217;-77
2020/12/01 06:24:19;;;;;;;12.07;6.73;;;;;;;;;;5092072;28;20221;-77
2020/12/01 06:27:18;;;;;;;10.53;6.87;;;;;;;;;;5059702;28;20201;-77
2020/12/01 06:30:04;;;;;;;10.90;6.30;;;;;;;;;;5032799;28;20597;-76
2020/12/01 06:32:58;;;;;;;10.63;6.17;;;;;;;;;;5071778;28;20198;-76
2020/12/01 06:35:44;;;;;;;9.57;6.50;;;;;;;;;;5081034;28;20222;-76
2020/12/01 06:38:26;;;;;;;11.40;6.83;;;;;;;;;;5066829;28;20672;-77
2020/12/01 06:40:56;;;;;;;13.03;7.63;;;;;;;;;;5077539;28;20226;-77
2020/12/01 06:43:27;;;;;;;11.07;6.40;;;;;;;;;;5099416;28;20217;-76
2020/12/01 06:45:57;;;;;;;12.13;6.97;;;;;;;;;;5076679;28;20206;-77
2020/12/01 06:48:28;;;;;;;14.17;7.50;;;;;;;;;;5086883;28;20201;-78
2020/12/01 06:50:58;;;;;;;12.87;7.40;;;;;;;;;;5080018;28;20206;-77
2020/12/01 06:53:29;;;;;;;12.47;8.13;;;;;;;;;;5076903;28;20227;-77
2020/12/01 06:55:58;;;;;;;10.97;7.37;;;;;;;;;;5066656;28;20680;-77
2020/12/01 06:58:35;;;;;;;13.80;7.10;;;;;;;;;;5066421;28;20686;-78
2020/12/01 07:01:24;;;;;;;13.93;8.37;;;;;;;;;;5084918;28;20202;-78
2020/12/01 07:04:18;;;;;;;12.50;8.03;;;;;;;;;;5080644;28;20222;-77
2020/12/01 07:06:49;;;;;;;15.17;8.63;;;;;;;;;;5083709;28;20229;-77
2020/12/01 07:09:18;;;;;;;13.30;8.00;;;;;;;;;;5078816;28;20211;-78
2020/12/01 07:11:56;;;;;;;13.63;8.33;;;;;;;;;;5085040;28;20585;-77
2020/12/01 07:14:27;;;;;;;12.97;8.80;;;;;;;;;;5086268;28;20285;-78
2020/12/01 07:16:55;;;;;;;14.20;8.37;;;;;;;;;;5074299;28;20203;-78
2020/12/01 07:19:37;;;;;;;10.43;6.53;;;;;;;;;;5061915;28;20206;-77
2020/12/01 07:22:10;;;;;;;12.30;7.53;;;;;;;;;;5077683;28;20207;-77
2020/12/01 07:24:41;;;;;;;12.27;6.83;;;;;;;;;;5077651;28;20230;-78
2020/12/01 07:27:12;;;;;;;11.67;7.33;;;;;;;;;;5090115;28;20209;-77
2020/12/01 07:29:54;;;;;;;10.77;7.03;;;;;;;;;;5089863;28;20213;-78
2020/12/01 07:32:24;;;;;;;11.57;7.10;;;;;;;;;;5085637;28;20210;-78
2020/12/01 07:35:09;;;;;;;13.10;8.50;;;;;;;;;;5065444;28;20222;-77
2020/12/01 07:37:45;;;;;;;11.83;7.77;;;;;;;;;;5071911;28;20683;-78
2020/12/01 07:40:23;;;;;;;11.27;7.27;;;;;;;;;;5087509;28;20212;-77
2020/12/01 07:43:01;;;;;;;13.60;7.60;;;;;;;;;;5080181;28;20209;-78
2020/12/01 07:45:32;;;;;;;13.57;7.17;;;;;;;;;;5070741;28;20222;-79
2020/12/01 07:48:01;;;;;;;13.40;8.40;;;;;;;;;;5087856;28;20198;-78
2020/12/01 07:50:31;;;;;;;11.33;7.27;;;;;;;;;;5072918;28;20202;-78
2020/12/01 07:53:02;;;;;;;13.77;7.57;;;;;;;;;;5068406;28;20206;-78
2020/12/01 07:55:37;;;;;;;12.33;7.40;;;;;;;;;;5085375;28;20570;-77
2020/12/01 07:58:07;;;;;;;12.77;7.57;;;;;;;;;;5079170;28;20206;-77
2020/12/01 08:00:35;;;;;;;12.47;7.63;;;;;;;;;;5069159;28;20217;-78
2020/12/01 08:03:09;;;;;;;11.90;7.40;;;;;;;;;;5059599;28;20217;-79
2020/12/01 08:05:36;;;;;;;10.90;7.17;;;;;;;;;;5079040;28;20710;-79
2020/12/01 08:08:04;;;;;;;11.57;7.53;;;;;;;;;;5086359;28;20202;-78
2020/12/01 08:10:33;;;;;;;12.57;7.57;;;;;;;;;;5071131;28;20564;-78
2020/12/01 08:13:02;;;;;;;12.97;7.30;;;;;;;;;;5086613;28;20205;-79
2020/12/01 08:15:30;;;;;;;10.83;7.03;;;;;;;;;;5064862;28;20211;-77
2020/12/01 08:18:02;;;;;;;12.67;6.97;;;;;;;;;;5068666;28;20199;-78
2020/12/01 08:20:30;;;;;;;11.97;6.87;;;;;;;;;;5084908;28;20639;-79
2020/12/01 08:23:05;;;;;;;12.00;6.87;;;;;;;;;;5086861;28;20391;-79
2020/12/01 08:25:55;;;;;;;10.27;7.07;;;;;;;;;;5060557;28;20222;-79
2020/12/01 08:28:26;;;;;;;12.27;7.60;;;;;;;;;;5079514;28;20202;-78
2020/12/01 08:31:03;;;;;;;11.53;6.80;;;;;;;;;;5064803;28;20213;-77
2020/12/01 08:33:43;;;;;;;10.07;7.00;;;;;;;;;;5104832;28;20656;-78
2020/12/01 08:36:21;;;;;;;12.80;7.27;;;;;;;;;;5079109;28;20221;-78
2020/12/01 08:39:00;;;;;;;12.90;7.70;;;;;;;;;;5081271;28;20198;-77
2020/12/01 08:41:38;;;;;;;9.87;7.03;;;;;;;;;;5080811;28;20210;-76
2020/12/01 08:44:10;;;;;;;10.17;6.73;;;;;;;;;;5099629;28;20301;-78
2020/12/01 08:46:42;;;;;;;12.47;7.23;;;;;;;;;;5082132;28;20210;-78
2020/12/01 08:49:23;;;;;;;11.00;7.00;;;;;;;;;;5081736;28;20225;-78
2020/12/01 08:51:54;;;;;;;12.07;7.00;;;;;;;;;;5062566;28;20206;-79
2020/12/01 08:54:24;;;;;;;11.60;7.13;;;;;;;;;;5079942;28;20234;-78
2020/12/01 08:57:06;;;;;;;10.43;6.63;;;;;;;;;;5074629;28;20578;-78
2020/12/01 08:59:38;;;;;;;12.10;7.20;;;;;;;;;;5073662;28;20688;-78
2020/12/01 09:02:09;;;;;;;11.47;6.80;;;;;;;;;;5077639;28;20229;-78
2020/12/01 09:04:38;;;;;;;11.10;6.73;;;;;;;;;;5086114;28;20226;-78
2020/12/01 09:07:14;;;;;;;11.80;7.17;;;;;;;;;;5086487;28;20683;-78
2020/12/01 09:09:42;;;;;;;9.93;5.70;;;;;;;;;;5074943;28;20212;-78
2020/12/01 09:12:19;;;;;;;11.63;6.43;;;;;;;;;;5082474;28;20210;-78
2020/12/01 09:15:02;;;;;;;11.40;6.60;;;;;;;;;;5082984;28;20312;-78
2020/12/01 09:17:39;;;;;;;10.27;6.40;;;;;;;;;;5090567;28;20206;-78
2020/12/01 09:20:29;;;;;;;10.93;6.53;;;;;;;;;;5088872;28;20202;-78
2020/12/01 09:23:13;;;;;;;9.77;6.30;;;;;;;;;;5091319;28;20202;-79
2020/12/01 09:25:41;;;;;;;9.77;5.70;;;;;;;;;;5068659;28;20700;-78
2020/12/01 09:28:12;;;;;;;7.80;5.03;;;;;;;;;;5070040;28;20207;-78
2020/12/01 09:30:42;;;;;;;8.50;5.50;;;;;;;;;;5096065;27;20203;-77
2020/12/01 09:33:12;;;;;;;7.97;5.23;;;;;;;;;;5091353;28;20206;-76
2020/12/01 09:35:41;;;;;;;7.03;5.23;;;;;;;;;;5093976;28;20725;-77
2020/12/01 09:38:09;;;;;;;8.83;5.43;;;;;;;;;;5080122;28;20210;-77
2020/12/01 09:40:38;;;;;;;8.50;5.47;;;;;;;;;;5092467;28;20199;-77
2020/12/01 09:43:13;;;;;;;7.47;5.27;;;;;;;;;;5080553;28;20202;-77
2020/12/01 09:45:56;;;;;;;8.60;5.03;;;;;;;;;;5078054;28;20714;-77
2020/12/01 09:48:28;;;;;;;9.63;5.57;;;;;;;;;;5068633;28;20753;-77
2020/12/01 09:50:57;;;;;;;7.53;5.07;;;;;;;;;;5081672;28;20202;-77
2020/12/01 09:56:27;;;;;;;9.07;5.17;;;;;;;;;;5084609;28;20202;-76
2020/12/01 10:12:55;;;;;;;7.63;4.77;;;;;;;;;;5055286;28;20218;-77
2020/12/01 10:15:46;;;;;;;6.40;4.80;;;;;;;;;;5066561;28;20730;-76
2020/12/01 10:18:33;;;;;;;7.30;4.87;;;;;;;;;;5081742;28;20207;-76
2020/12/01 10:35:10;;;;;;;6.57;4.63;;;;;;;;;;5083739;28;20682;-76
2020/12/01 10:37:51;;;;;;;6.77;4.60;;;;;;;;;;5083617;28;20496;-76
2020/12/01 10:40:21;;;;;;;8.07;4.43;;;;;;;;;;5086150;28;20225;-75
2020/12/01 10:42:49;;;;;;;6.57;4.13;;;;;;;;;;5087005;28;20214;-76
2020/12/01 10:45:17;;;;;;;8.40;4.23;;;;;;;;;;5083522;28;20233;-76
2020/12/01 10:47:45;;;;;;;6.40;4.17;;;;;;;;;;5065958;28;20221;-76
2020/12/01 10:50:13;;;;;;;6.20;3.57;;;;;;;;;;5077887;28;20195;-75
2020/12/01 10:52:40;;;;;;;5.50;3.93;;;;;;;;;;5108669;28;20220;-75
2020/12/01 10:55:08;;;;;;;7.47;4.63;;;;;;;;;;5108601;28;20225;-75
2020/12/01 10:57:36;;;;;;;5.60;3.73;;;;;;;;;;5087387;28;20209;-76
2020/12/01 11:00:06;;;;;;;6.33;4.20;;;;;;;;;;5109765;28;20206;-75
2020/12/01 11:02:34;;;;;;;6.63;4.27;;;;;;;;;;5080587;28;20221;-75
2020/12/01 11:05:05;;;;;;;6.37;3.93;;;;;;;;;;5085679;28;20230;-76
2020/12/01 11:07:33;;;;;;;6.37;4.07;;;;;;;;;;5057240;28;20648;-75
2020/12/01 11:10:00;;;;;;;6.00;4.07;;;;;;;;;;5090304;28;20276;-75
2020/12/01 11:12:28;;;;;;;6.03;4.10;;;;;;;;;;5085552;28;20581;-76
2020/12/01 11:14:56;;;;;;;7.67;4.03;;;;;;;;;;5066844;28;20238;-75
2020/12/01 11:17:23;;;;;;;5.90;3.87;;;;;;;;;;5097150;28;20199;-76
2020/12/01 11:19:51;;;;;;;6.13;4.20;;;;;;;;;;5068420;28;20256;-75
2020/12/01 11:22:18;;;;;;;6.97;4.10;;;;;;;;;;5085763;28;20695;-76
2020/12/01 11:24:46;;;;;;;12.17;5.00;;;;;;;;;;5062459;28;20230;-76
2020/12/01 11:27:14;;;;;;;7.10;4.20;;;;;;;;;;5079245;28;20209;-76
2020/12/01 11:29:41;;;;;;;8.03;4.30;;;;;;;;;;5081018;28;20210;-76
2020/12/01 11:32:10;;;;;;;6.30;4.60;;;;;;;;;;5083280;28;20206;-77
2020/12/01 11:34:37;;;;;;;6.47;3.90;;;;;;;;;;5066033;28;20233;-76
2020/12/01 11:37:05;;;;;;;6.50;4.27;;;;;;;;;;5088321;28;20214;-77
2020/12/01 11:39:32;;;;;;;6.77;4.33;;;;;;;;;;5081524;28;20210;-76
2020/12/01 11:42:01;;;;;;;5.50;3.70;;;;;;;;;;5071908;28;20206;-76
2020/12/01 11:44:29;;;;;;;6.30;4.03;;;;;;;;;;5071572;28;20484;-77
2020/12/01 11:46:57;;;;;;;7.57;4.47;;;;;;;;;;5088293;28;20195;-77
2020/12/01 11:49:25;;;;;;;6.20;3.97;;;;;;;;;;5080190;28;20202;-77
2020/12/01 11:51:52;;;;;;;6.37;4.50;;;;;;;;;;5089663;28;20205;-77
2020/12/01 11:54:20;;;;;;;7.17;4.30;;;;;;;;;;5084057;28;20230;-76
2020/12/01 12:02:57;;;;;;;6.30;4.03;;;;;;;;;;5045208;22;20238;-77
2020/12/01 12:05:25;;;;;;;8.17;5.00;;;;;;;;;;5039600;28;20254;-76
2020/12/01 12:07:53;;;;;;;10.10;4.83;;;;;;;;;;5029745;28;20222;-76
2020/12/01 12:10:20;;;;;;;7.70;4.60;;;;;;;;;;5053502;28;20671;-76
2020/12/01 12:12:49;;;;;;;8.07;4.83;;;;;;;;;;5001758;28;20204;-76
2020/12/01 12:15:17;;;;;;;6.70;4.23;;;;;;;;;;5022995;28;20211;-76
2020/12/01 12:17:44;;;;;;;6.57;4.53;;;;;;;;;;5007855;28;20200;-76
2020/12/01 12:20:12;;;;;;;8.90;4.87;;;;;;;;;;5007360;28;20223;-76
2020/12/01 12:22:40;;;;;;;8.93;5.07;;;;;;;;;;5014734;28;20224;-76
2020/12/01 12:25:08;;;;;;;6.47;4.17;;;;;;;;;;5005370;28;20224;-76
2020/12/01 12:27:36;;;;;;;8.53;4.83;;;;;;;;;;5028356;28;20585;-77
2020/12/01 12:30:04;;;;;;;7.10;4.70;;;;;;;;;;5022088;28;20212;-77
2020/12/01 12:32:32;;;;;;;7.63;4.90;;;;;;;;;;5020218;28;20755;-77
2020/12/01 12:34:59;;;;;;;8.77;4.80;;;;;;;;;;5002475;28;20204;-77
2020/12/01 12:37:27;;;;;;;8.20;4.97;;;;;;;;;;5020759;28;20208;-76
2020/12/01 12:39:56;;;;;;;6.77;4.73;;;;;;;;;;5018573;28;20640;-76
2020/12/01 12:42:25;;;;;;;8.57;5.07;;;;;;;;;;5004596;28;20610;-76
2020/12/01 12:44:53;;;;;;;6.73;4.67;;;;;;;;;;5027282;28;20208;-77
2020/12/01 12:47:20;;;;;;;6.53;4.40;;;;;;;;;;5005332;28;20219;-77
2020/12/01 12:49:48;;;;;;;6.60;4.30;;;;;;;;;;5020265;28;20227;-77
2020/12/01 12:52:16;;;;;;;7.40;5.30;;;;;;;;;;5023812;28;20220;-76
2020/12/01 12:54:44;;;;;;;9.00;4.57;;;;;;;;;;5035134;28;20680;-76
2020/12/01 12:57:12;;;;;;;7.20;4.70;;;;;;;;;;5030257;28;20211;-77
2020/12/01 12:59:40;;;;;;;7.17;4.73;;;;;;;;;;5023945;28;20209;-77
2020/12/01 13:02:07;;;;;;;7.23;4.50;;;;;;;;;;5021339;28;20231;-77
2020/12/01 13:04:35;;;;;;;6.90;4.30;;;;;;;;;;5025787;28;20625;-77
2020/12/01 13:07:03;;;;;;;5.97;3.87;;;;;;;;;;5017925;28;20234;-77
2020/12/01 13:09:30;;;;;;;6.00;4.33;;;;;;;;;;5021374;28;20517;-77
2020/12/01 13:11:57;;;;;;;7.40;4.63;;;;;;;;;;5026346;28;20697;-77
2020/12/01 13:14:26;;;;;;;6.73;4.90;;;;;;;;;;5022196;28;20200;-77
2020/12/01 13:16:54;;;;;;;7.50;4.50;;;;;;;;;;5022563;28;20219;-77
2020/12/01 13:19:22;;;;;;;7.60;4.63;;;;;;;;;;5023841;28;20581;-77
2020/12/01 13:21:49;;;;;;;7.43;4.37;;;;;;;;;;5021588;28;20239;-77
2020/12/01 13:24:17;;;;;;;5.73;3.90;;;;;;;;;;5041675;28;20660;-77
2020/12/01 13:26:46;;;;;;;6.43;4.20;;;;;;;;;;5029616;28;20708;-77
2020/12/01 13:29:14;;;;;;;7.20;4.90;;;;;;;;;;5013305;28;20235;-77
2020/12/01 13:31:42;;;;;;;6.43;4.30;;;;;;;;;;5023807;28;20602;-77
2020/12/01 13:34:10;;;;;;;6.53;4.23;;;;;;;;;;5035071;28;20209;-77
2020/12/01 13:36:37;;;;;;;7.83;4.10;;;;;;;;;;5014154;28;20201;-77
2020/12/01 13:39:05;;;;;;;7.73;4.43;;;;;;;;;;5021230;28;20692;-77
2020/12/01 13:41:32;;;;;;;5.30;3.63;;;;;;;;;;5028512;28;20239;-77
2020/12/01 13:44:00;;;;;;;6.37;3.93;;;;;;;;;;5027426;28;20224;-77
2020/12/01 13:46:28;;;;;;;6.43;4.00;;;;;;;;;;5030008;28;20607;-77
2020/12/01 13:48:57;;;;;;;7.13;4.20;;;;;;;;;;5028627;28;20204;-77
2020/12/01 13:51:24;;;;;;;6.70;4.07;;;;;;;;;;5028114;28;20247;-77
2020/12/01 13:53:52;;;;;;;6.73;4.03;;;;;;;;;;5033086;28;20200;-77
2020/12/01 13:56:19;;;;;;;8.43;4.20;;;;;;;;;;5035637;28;20208;-77
2020/12/01 13:58:47;;;;;;;6.77;4.00;;;;;;;;;;5029142;28;20223;-77
2020/12/01 14:01:15;;;;;;;5.47;3.63;;;;;;;;;;5030826;28;20228;-77
2020/12/01 14:03:43;;;;;;;8.27;4.40;;;;;;;;;;5027254;28;21228;-77
2020/12/01 14:06:15;;;;;;;5.47;3.60;;;;;;;;;;5016303;28;20713;-77
2020/12/01 14:08:43;;;;;;;9.70;3.93;;;;;;;;;;5027796;28;20230;-77
2020/12/01 14:11:12;;;;;;;5.30;3.70;;;;;;;;;;5031554;28;20231;-77
2020/12/01 14:13:40;;;;;;;4.83;3.60;;;;;;;;;;5053897;28;20199;-77
2020/12/01 14:16:08;;;;;;;4.60;3.23;;;;;;;;;;5043694;28;20215;-77
2020/12/01 14:18:36;;;;;;;5.10;3.27;;;;;;;;;;5031046;28;20208;-77
2020/12/01 14:21:04;;;;;;;4.87;3.00;;;;;;;;;;5028425;28;20577;-77
2020/12/01 14:23:34;;;;;;;4.57;2.90;;;;;;;;;;5030021;28;20200;-77
2020/12/01 14:26:02;;;;;;;8.87;3.20;;;;;;;;;;5023957;28;20242;-77
2020/12/01 14:28:30;;;;;;;4.20;2.60;;;;;;;;;;5019304;28;20221;-77
2020/12/01 14:30:58;;;;;;;5.50;3.37;;;;;;;;;;5027522;28;20236;-78
2020/12/01 14:33:25;;;;;;;4.67;3.63;;;;;;;;;;5023098;28;20209;-77
2020/12/01 14:35:53;;;;;;;4.53;2.93;;;;;;;;;;5042466;28;20231;-77
2020/12/01 14:38:21;;;;;;;4.90;3.20;;;;;;;;;;5011393;28;20208;-77
2020/12/01 14:40:50;;;;;;;3.50;3.10;;;;;;;;;;5023309;28;20239;-77
2020/12/01 14:43:18;;;;;;;4.13;2.30;;;;;;;;;;5047232;28;20211;-78
2020/12/01 14:45:45;;;;;;;3.23;2.60;;;;;;;;;;5066974;28;20194;-77
2020/12/01 14:48:28;;;;;;;4.93;3.23;;;;;;;;;;5050600;28;20424;-78
2020/12/01 14:51:14;;;;;;;3.53;2.87;;;;;;;;;;5040958;28;20235;-77
2020/12/01 14:53:49;;;;;;;5.97;3.10;;;;;;;;;;5014515;28;20196;-77
2020/12/01 14:56:41;;;;;;;4.17;3.10;;;;;;;;;;5030430;28;20203;-77
2020/12/01 14:59:29;;;;;;;4.47;2.70;;;;;;;;;;5029806;28;20576;-77
2020/12/01 15:02:04;;;;;;;3.90;2.40;;;;;;;;;;5042842;28;20680;-78
2020/12/01 15:04:49;;;;;;;4.37;3.20;;;;;;;;;;5029767;28;20212;-78
2020/12/01 15:07:28;;;;;;;8.07;3.10;;;;;;;;;;5035609;28;20234;-78
2020/12/01 15:10:04;;;;;;;5.93;3.27;;;;;;;;;;5049348;28;20208;-77
2020/12/01 15:12:38;;;;;;;4.70;2.90;;;;;;;;;;5046999;28;20228;-78
2020/12/01 15:15:09;;;;;;;4.20;2.93;;;;;;;;;;5039736;28;20218;-77
2020/12/01 15:17:38;;;;;;;2.90;2.43;;;;;;;;;;5019501;28;20193;-76
2020/12/01 15:20:10;;;;;;;4.50;2.83;;;;;;;;;;5035563;28;20208;-78
2020/12/01 15:22:48;;;;;;;4.83;3.10;;;;;;;;;;5018745;28;20224;-78
2020/12/01 15:25:20;;;;;;;3.77;2.80;;;;;;;;;;5025146;28;20223;-78
2020/12/01 15:27:50;;;;;;;5.80;3.10;;;;;;;;;;5006097;28;20724;-78
2020/12/01 15:30:20;;;;;;;2.90;2.27;;;;;;;;;;5026681;28;20223;-78